Time;durP1;ratioP1;P1;durP2;ratioP2;P2;SDS_P1;SDS_P2;PMS_P1;PMS_P2;Temp;Humidity;BMP_temperature;BMP_pressure;BME280_temperature;BME280_humidity;BME280_pressure;Samples;Min_cycle;Max_cycle;Signal;HPM_P1;HPM_P2
2023/07/16 00:02:22;;;;;;;13.07;4.22;;;15.00;72.40;;;;;;4938602;28;20047;-91
2023/07/16 00:04:53;;;;;;;16.38;4.50;;;15.00;72.30;;;;;;4956937;28;20110;-93
2023/07/16 00:07:19;;;;;;;14.37;4.20;;;15.00;72.30;;;;;;4934060;28;20043;-91
2023/07/16 00:09:47;;;;;;;22.10;4.43;;;15.00;72.20;;;;;;4956170;28;20309;-92
2023/07/16 00:12:16;;;;;;;12.52;4.05;;;14.90;72.40;;;;;;4938269;28;20058;-93
2023/07/16 00:14:44;;;;;;;13.27;3.80;;;14.90;72.40;;;;;;4940111;28;20065;-92
2023/07/16 00:17:11;;;;;;;13.25;4.10;;;14.90;72.50;;;;;;4938093;28;20077;-92
2023/07/16 00:19:46;;;;;;;18.15;3.95;;;14.90;72.30;;;;;;4957600;28;20054;-91
2023/07/16 00:22:12;;;;;;;13.63;3.53;;;14.90;72.10;;;;;;4957403;28;20086;-91
2023/07/16 00:24:40;;;;;;;14.95;4.15;;;14.90;72.20;;;;;;4911063;29;20458;-92
2023/07/16 00:27:06;;;;;;;15.82;4.22;;;14.90;71.90;;;;;;4911261;28;20126;-94
2023/07/16 00:29:32;;;;;;;11.75;3.83;;;14.90;72.00;;;;;;4971079;28;20516;-93
2023/07/16 00:31:58;;;;;;;12.75;4.15;;;14.90;71.70;;;;;;4956299;28;20525;-93
2023/07/16 00:34:26;;;;;;;18.00;3.83;;;15.00;71.50;;;;;;4948896;28;20137;-92
2023/07/16 00:37:01;;;;;;;11.65;3.78;;;15.00;71.50;;;;;;4933918;29;20610;-93
2023/07/16 00:39:30;;;;;;;14.52;4.03;;;15.00;71.50;;;;;;4936577;29;20053;-92
2023/07/16 00:41:58;;;;;;;16.23;4.30;;;15.00;71.60;;;;;;4939657;28;20130;-92
2023/07/16 00:44:27;;;;;;;10.38;3.83;;;15.00;71.40;;;;;;4920374;28;20058;-92
2023/07/16 00:47:00;;;;;;;16.23;4.05;;;15.00;71.40;;;;;;4946917;29;20038;-93
2023/07/16 00:49:27;;;;;;;11.40;4.10;;;15.10;71.20;;;;;;4916436;29;20043;-91
2023/07/16 00:51:54;;;;;;;17.35;4.53;;;15.10;71.30;;;;;;4943911;29;20087;-92
2023/07/16 00:54:20;;;;;;;13.27;4.05;;;15.10;71.60;;;;;;4932015;29;20058;-92
2023/07/16 00:56:49;;;;;;;13.80;4.13;;;15.10;71.50;;;;;;4932310;28;20051;-91
2023/07/16 00:59:16;;;;;;;16.95;4.20;;;15.10;71.70;;;;;;4926632;29;20047;-91
2023/07/16 01:01:41;;;;;;;12.05;3.72;;;15.10;71.60;;;;;;4932281;28;20042;-93
2023/07/16 01:04:10;;;;;;;11.75;4.13;;;15.20;71.50;;;;;;4941705;28;20058;-90
2023/07/16 01:06:43;;;;;;;9.50;3.88;;;15.20;71.40;;;;;;4924238;29;20039;-91
2023/07/16 01:09:20;;;;;;;16.40;4.22;;;15.30;71.50;;;;;;4935851;28;20050;-92
2023/07/16 01:11:58;;;;;;;12.27;4.13;;;15.30;71.50;;;;;;4957324;28;20047;-93
2023/07/16 01:14:24;;;;;;;20.13;4.75;;;15.30;71.80;;;;;;4921440;29;20125;-92
2023/07/16 01:16:52;;;;;;;15.27;4.65;;;15.30;71.70;;;;;;4944937;28;20289;-90
2023/07/16 01:19:18;;;;;;;15.63;4.57;;;15.40;71.60;;;;;;4934261;29;20058;-91
2023/07/16 01:22:32;;;;;;;15.23;4.47;;;15.40;71.90;;;;;;4938386;29;20043;-93
2023/07/16 01:25:20;;;;;;;13.75;4.32;;;15.50;71.80;;;;;;4954458;28;20410;-91
2023/07/16 01:28:07;;;;;;;16.40;5.13;;;15.60;71.90;;;;;;4940972;28;20050;-91
2023/07/16 01:30:39;;;;;;;16.98;4.93;;;15.60;71.80;;;;;;4959979;28;20058;-93
2023/07/16 01:33:05;;;;;;;14.38;4.50;;;15.60;71.80;;;;;;4956508;28;20069;-92
2023/07/16 01:35:31;;;;;;;13.85;4.82;;;15.60;71.90;;;;;;4962925;28;20054;-92
2023/07/16 01:37:59;;;;;;;17.35;5.45;;;15.60;71.70;;;;;;4952410;28;20069;-91
2023/07/16 01:40:32;;;;;;;16.58;4.63;;;15.60;71.90;;;;;;4973480;28;20446;-92
2023/07/16 01:42:58;;;;;;;16.48;4.75;;;15.60;72.00;;;;;;4975057;28;20053;-91
2023/07/16 01:45:26;;;;;;;15.82;3.97;;;15.60;72.00;;;;;;4951192;28;20455;-94
2023/07/16 01:48:19;;;;;;;16.83;4.40;;;15.60;71.90;;;;;;4953508;28;20062;-92
2023/07/16 01:50:45;;;;;;;19.40;4.10;;;15.60;71.90;;;;;;4975434;28;20065;-92
2023/07/16 01:53:11;;;;;;;13.10;4.65;;;15.60;71.70;;;;;;4954988;28;20484;-92
2023/07/16 01:55:37;;;;;;;15.05;3.70;;;15.60;71.60;;;;;;4954949;28;20054;-91
2023/07/16 01:58:05;;;;;;;14.77;3.88;;;15.60;71.50;;;;;;4930456;28;20047;-92
2023/07/16 02:00:31;;;;;;;11.57;4.13;;;15.60;71.50;;;;;;4946062;28;20043;-92
2023/07/16 02:03:00;;;;;;;10.60;3.85;;;15.60;71.50;;;;;;4958892;28;20054;-93
2023/07/16 02:05:28;;;;;;;12.90;3.78;;;15.60;71.50;;;;;;4942112;28;20134;-93
2023/07/16 02:07:54;;;;;;;14.20;3.80;;;15.60;71.30;;;;;;4950544;28;20083;-92
2023/07/16 02:10:20;;;;;;;12.93;3.70;;;15.60;71.20;;;;;;4941924;28;20043;-91
2023/07/16 02:12:46;;;;;;;11.07;3.30;;;15.60;71.20;;;;;;4957866;28;20054;-94
2023/07/16 02:15:12;;;;;;;11.32;3.40;;;15.70;70.90;;;;;;4952495;28;20082;-92
2023/07/16 02:17:38;;;;;;;9.30;3.30;;;15.80;70.80;;;;;;4956070;28;20054;-92
2023/07/16 02:20:07;;;;;;;14.02;4.10;;;15.80;70.90;;;;;;4945097;28;20057;-92
2023/07/16 02:22:35;;;;;;;10.25;3.40;;;15.80;71.00;;;;;;4937682;28;20046;-92
2023/07/16 02:25:01;;;;;;;14.95;3.78;;;15.70;71.00;;;;;;4949074;28;20137;-92
2023/07/16 02:27:27;;;;;;;9.32;3.15;;;15.70;71.00;;;;;;4930704;28;20054;-90
2023/07/16 02:29:53;;;;;;;12.52;3.67;;;15.70;71.10;;;;;;4943787;28;20049;-93
2023/07/16 02:32:21;;;;;;;17.00;3.70;;;15.70;71.00;;;;;;4965179;28;20125;-91
2023/07/16 02:34:53;;;;;;;12.43;3.80;;;15.80;71.00;;;;;;4961462;28;20051;-94
2023/07/16 02:37:19;;;;;;;10.25;3.83;;;15.70;71.10;;;;;;4965215;28;20120;-92
2023/07/16 02:39:47;;;;;;;16.55;4.28;;;15.70;71.00;;;;;;4974229;28;20055;-92
2023/07/16 02:42:13;;;;;;;12.73;3.95;;;15.70;71.20;;;;;;4951324;28;20046;-91
2023/07/16 02:44:44;;;;;;;14.80;4.78;;;15.60;71.10;;;;;;4953569;28;20133;-92
2023/07/16 02:47:10;;;;;;;;;;;15.60;71.20;;;;;;4950236;28;20051;-93
2023/07/16 02:49:37;;;;;;;12.65;4.65;;;15.60;71.20;;;;;;4941785;28;19926;-92
2023/07/16 02:52:06;;;;;;;13.77;4.80;;;15.60;71.30;;;;;;4949083;28;20062;-92
2023/07/16 02:54:36;;;;;;;14.18;4.82;;;15.60;71.30;;;;;;4940098;28;20050;-92
2023/07/16 02:57:02;;;;;;;11.63;4.78;;;15.60;71.30;;;;;;4960522;28;20472;-92
2023/07/16 02:59:30;;;;;;;15.10;4.88;;;15.60;71.40;;;;;;4924894;28;20051;-91
2023/07/16 03:01:56;;;;;;;11.18;4.68;;;15.50;71.30;;;;;;4942004;28;20138;-90
2023/07/16 03:04:24;;;;;;;14.30;4.88;;;15.50;71.20;;;;;;4966252;28;20538;-91
2023/07/16 03:06:53;;;;;;;14.68;5.15;;;15.50;71.20;;;;;;4945321;28;20129;-91
2023/07/16 03:09:21;;;;;;;15.73;5.25;;;15.50;71.20;;;;;;4966986;28;20048;-92
2023/07/16 03:11:47;;;;;;;12.18;4.63;;;15.50;71.10;;;;;;4938094;28;20078;-94
2023/07/16 03:14:15;;;;;;;13.35;4.63;;;15.50;71.20;;;;;;4960241;28;20177;-91
2023/07/16 03:16:44;;;;;;;16.08;4.85;;;15.50;71.10;;;;;;4945819;28;20125;-91
2023/07/16 03:19:12;;;;;;;13.85;4.95;;;15.50;71.00;;;;;;4958391;28;20042;-90
2023/07/16 03:21:41;;;;;;;11.32;5.00;;;15.50;71.10;;;;;;4987749;28;20050;-91
2023/07/16 03:24:09;;;;;;;18.27;4.93;;;15.50;71.40;;;;;;4943451;28;20414;-92
2023/07/16 03:26:35;;;;;;;12.18;4.95;;;15.50;71.10;;;;;;4970136;28;20042;-93
2023/07/16 03:29:03;;;;;;;11.88;5.32;;;15.50;71.10;;;;;;4951855;28;20398;-92
2023/07/16 03:31:37;;;;;;;13.80;4.75;;;15.50;71.30;;;;;;4963969;28;20065;-90
2023/07/16 03:34:02;;;;;;;11.90;5.03;;;15.50;71.20;;;;;;4943988;28;20051;-90
2023/07/16 03:36:28;;;;;;;11.52;5.32;;;15.50;71.10;;;;;;4937480;29;20197;-91
2023/07/16 03:38:56;;;;;;;13.80;5.43;;;15.50;71.10;;;;;;4938693;28;20059;-90
2023/07/16 03:41:22;;;;;;;14.57;5.07;;;15.50;71.00;;;;;;4965074;28;20068;-91
2023/07/16 03:43:48;;;;;;;14.43;5.57;;;15.50;71.00;;;;;;4955569;28;20094;-93
2023/07/16 03:46:16;;;;;;;11.25;5.45;;;15.50;71.20;;;;;;4955615;28;20189;-91
2023/07/16 03:48:42;;;;;;;11.98;5.25;;;15.50;71.30;;;;;;4935253;28;20046;-92
2023/07/16 03:51:08;;;;;;;14.90;5.43;;;15.50;71.20;;;;;;4950040;28;20070;-93
2023/07/16 03:53:43;;;;;;;14.52;6.03;;;15.60;71.20;;;;;;4943907;28;20071;-95
2023/07/16 03:56:09;;;;;;;17.60;6.00;;;15.60;71.40;;;;;;4936066;28;20055;-89
2023/07/16 03:58:35;;;;;;;16.63;5.80;;;15.60;71.40;;;;;;4960549;28;20138;-88
2023/07/16 04:01:01;;;;;;;12.93;5.32;;;15.60;71.40;;;;;;4960047;28;20042;-93
2023/07/16 04:03:27;;;;;;;16.98;6.07;;;15.50;71.50;;;;;;4931669;28;20050;-91
2023/07/16 04:06:12;;;;;;;15.50;6.63;;;15.60;71.50;;;;;;4941017;28;20054;-95
2023/07/16 04:08:41;;;;;;;11.07;5.85;;;15.60;71.40;;;;;;4961113;28;20709;-91
2023/07/16 04:11:17;;;;;;;16.88;6.03;;;15.60;71.50;;;;;;4949864;28;20505;-91
2023/07/16 04:14:06;;;;;;;12.07;5.50;;;15.60;71.60;;;;;;4985509;28;20163;-92
2023/07/16 04:16:52;;;;;;;16.38;6.10;;;15.60;71.40;;;;;;4964934;28;20303;-93
2023/07/16 04:22:16;;;;;;;16.13;6.57;;;15.60;71.50;;;;;;4944650;28;20689;-94
2023/07/16 04:24:51;;;;;;;13.82;6.15;;;15.60;71.70;;;;;;4967318;28;20061;-91
2023/07/16 04:27:20;;;;;;;13.63;6.47;;;15.60;71.60;;;;;;4983601;28;20038;-91
2023/07/16 04:29:49;;;;;;;14.93;6.40;;;15.60;71.80;;;;;;4947944;28;20038;-90
2023/07/16 04:32:15;;;;;;;21.10;6.68;;;15.60;71.80;;;;;;4918386;28;20051;-92
2023/07/16 04:34:46;;;;;;;18.08;6.95;;;15.70;71.80;;;;;;4942342;28;20376;-92
2023/07/16 04:37:12;;;;;;;18.38;6.65;;;15.70;71.60;;;;;;4914455;28;20051;-91
2023/07/16 04:39:40;;;;;;;21.38;6.50;;;15.80;71.60;;;;;;4940336;28;20047;-93
2023/07/16 04:42:09;;;;;;;20.05;7.53;;;15.80;71.80;;;;;;4939143;28;20050;-93
2023/07/16 04:44:41;;;;;;;18.27;6.80;;;15.80;71.80;;;;;;4945414;28;20066;-94
2023/07/16 04:47:09;;;;;;;20.85;6.72;;;15.80;71.70;;;;;;4947133;28;20695;-91
2023/07/16 04:49:52;;;;;;;20.67;7.47;;;15.80;71.90;;;;;;4939132;28;20059;-92
2023/07/16 04:52:20;;;;;;;19.23;6.80;;;15.90;71.90;;;;;;4939943;28;20114;-94
2023/07/16 04:54:49;;;;;;;15.85;6.55;;;15.90;71.70;;;;;;4952902;28;20142;-94
2023/07/16 04:57:15;;;;;;;18.45;6.78;;;16.00;71.90;;;;;;4914189;28;20039;-91
2023/07/16 04:59:44;;;;;;;16.08;6.65;;;16.00;71.70;;;;;;4884889;29;20056;-90
2023/07/16 05:02:14;;;;;;;21.13;7.30;;;16.00;71.70;;;;;;4866584;29;20060;-92
2023/07/16 05:04:39;;;;;;;16.73;7.22;;;16.00;71.70;;;;;;4875435;29;20135;-91
2023/07/16 05:07:10;;;;;;;19.30;7.55;;;16.10;71.90;;;;;;4901291;28;20141;-92
2023/07/16 05:09:43;;;;;;;16.88;7.43;;;16.10;71.80;;;;;;4958860;28;20053;-92
2023/07/16 05:12:12;;;;;;;18.63;7.20;;;16.10;71.80;;;;;;4950901;28;20109;-91
2023/07/16 05:14:46;;;;;;;16.58;7.20;;;16.20;71.80;;;;;;4955566;28;20053;-92
2023/07/16 05:17:13;;;;;;;16.25;7.18;;;16.20;72.00;;;;;;4934715;28;20546;-91
2023/07/16 05:19:43;;;;;;;17.45;7.68;;;16.40;71.80;;;;;;4955931;28;20055;-93
2023/07/16 05:22:11;;;;;;;16.13;6.87;;;16.40;71.70;;;;;;4937422;28;20043;-91
2023/07/16 05:24:40;;;;;;;15.77;6.93;;;16.50;71.60;;;;;;4923825;28;20047;-91
2023/07/16 05:27:06;;;;;;;18.25;7.57;;;16.60;71.60;;;;;;4944103;28;20716;-92
2023/07/16 05:29:32;;;;;;;16.05;6.40;;;16.60;71.50;;;;;;4960291;28;20039;-95
2023/07/16 05:32:01;;;;;;;14.32;6.82;;;16.60;71.40;;;;;;4951789;28;20085;-93
2023/07/16 05:34:27;;;;;;;19.45;6.82;;;16.60;71.50;;;;;;4943366;28;20051;-92
2023/07/16 05:36:58;;;;;;;13.23;6.80;;;16.60;71.50;;;;;;4918504;28;20548;-93
2023/07/16 05:39:29;;;;;;;17.17;6.30;;;16.60;71.40;;;;;;4941343;28;20054;-93
2023/07/16 05:42:02;;;;;;;14.48;5.93;;;16.60;71.20;;;;;;4954360;28;20052;-95
2023/07/16 05:44:28;;;;;;;15.73;6.38;;;16.50;71.40;;;;;;4932350;28;20151;-92
2023/07/16 05:46:54;;;;;;;15.48;6.25;;;16.50;71.40;;;;;;4932223;28;20042;-93
2023/07/16 05:49:32;;;;;;;12.20;6.07;;;16.60;71.40;;;;;;4930214;28;20057;-92
2023/07/16 05:52:08;;;;;;;14.20;5.47;;;16.60;71.20;;;;;;4928289;29;20063;-93
2023/07/16 05:55:12;;;;;;;16.15;5.57;;;16.60;71.10;;;;;;4951587;28;20051;-92
2023/07/16 05:57:41;;;;;;;13.23;6.40;;;16.60;71.40;;;;;;4901549;28;20075;-93
2023/07/16 06:00:08;;;;;;;12.60;5.68;;;16.60;71.30;;;;;;4938137;28;20062;-91
2023/07/16 06:02:45;;;;;;;14.68;5.80;;;16.60;71.10;;;;;;4930243;28;20058;-91
2023/07/16 06:05:11;;;;;;;16.17;6.20;;;16.60;71.30;;;;;;4936089;28;20141;-91
2023/07/16 06:07:36;;;;;;;13.63;5.30;;;16.70;71.20;;;;;;4919284;29;20591;-90
2023/07/16 06:10:08;;;;;;;15.82;5.45;;;16.80;71.50;;;;;;4949830;28;20087;-93
2023/07/16 06:12:35;;;;;;;11.20;5.30;;;16.70;71.70;;;;;;4939278;28;20133;-90
2023/07/16 06:15:01;;;;;;;13.40;5.70;;;16.70;71.80;;;;;;4935118;28;20042;-91
2023/07/16 06:17:27;;;;;;;16.33;5.90;;;16.70;72.00;;;;;;4927597;28;20061;-92
2023/07/16 06:19:53;;;;;;;16.08;5.85;;;16.80;71.80;;;;;;4937735;28;20042;-91
2023/07/16 06:22:18;;;;;;;19.20;6.13;;;16.90;72.00;;;;;;4916249;28;20050;-91
2023/07/16 06:24:47;;;;;;;17.75;6.10;;;16.90;72.30;;;;;;4924822;28;20058;-91
2023/07/16 06:27:32;;;;;;;;;;;;;;;;;;;;;
2023/07/16 06:30:05;;;;;;;13.88;5.57;;;16.70;73.50;;;;;;4955424;28;20047;-89
2023/07/16 06:32:31;;;;;;;17.08;6.22;;;16.60;73.80;;;;;;4951148;28;20050;-91
2023/07/16 06:35:00;;;;;;;13.30;6.22;;;16.50;74.10;;;;;;4957014;28;20110;-92
2023/07/16 06:37:26;;;;;;;16.40;6.68;;;16.40;74.30;;;;;;4931946;29;20456;-92
2023/07/16 06:39:51;;;;;;;15.32;6.30;;;16.50;74.50;;;;;;4968855;28;20050;-91
2023/07/16 06:42:20;;;;;;;14.98;6.82;;;16.50;74.50;;;;;;4945371;28;20442;-89
2023/07/16 06:44:48;;;;;;;14.20;6.60;;;16.50;74.60;;;;;;4914629;29;20056;-89
2023/07/16 06:47:20;;;;;;;14.38;6.95;;;16.50;74.60;;;;;;4921755;28;20054;-91
2023/07/16 06:49:45;;;;;;;16.17;6.00;;;16.60;74.60;;;;;;4955268;28;20043;-90
2023/07/16 06:52:27;;;;;;;12.73;5.82;;;16.70;74.30;;;;;;4921398;28;20415;-90
2023/07/16 06:54:56;;;;;;;17.02;6.15;;;16.80;74.10;;;;;;4963149;28;20050;-91
2023/07/16 06:57:25;;;;;;;17.88;6.15;;;16.90;73.50;;;;;;4955195;28;20077;-90
2023/07/16 06:59:54;;;;;;;17.35;6.43;;;16.90;73.50;;;;;;4961184;28;20089;-90
2023/07/16 07:02:20;;;;;;;16.10;7.13;;;16.80;73.60;;;;;;4970848;28;20084;-91
2023/07/16 07:05:02;;;;;;;16.75;7.15;;;16.80;73.20;;;;;;4960899;28;20103;-91
2023/07/16 07:07:33;;;;;;;18.30;7.22;;;16.80;73.10;;;;;;4943532;28;20046;-91
2023/07/16 07:10:06;;;;;;;12.45;6.03;;;16.80;73.30;;;;;;4960730;28;20529;-91
2023/07/16 07:12:37;;;;;;;16.38;6.95;;;16.90;72.40;;;;;;4938212;28;20050;-91
2023/07/16 07:15:08;;;;;;;14.45;6.47;;;16.90;72.70;;;;;;4939466;28;20128;-91
2023/07/16 07:17:34;;;;;;;15.07;6.72;;;17.00;72.20;;;;;;4943592;28;20053;-92
2023/07/16 07:20:01;;;;;;;16.42;6.93;;;17.00;72.10;;;;;;4944556;28;20043;-90
2023/07/16 07:22:27;;;;;;;14.93;6.43;;;17.20;71.90;;;;;;4970706;28;20042;-90
2023/07/16 07:24:57;;;;;;;14.77;6.43;;;17.20;71.80;;;;;;4943648;28;20108;-92
2023/07/16 07:27:23;;;;;;;13.53;6.60;;;17.30;71.80;;;;;;4970885;28;20050;-90
2023/07/16 07:29:51;;;;;;;13.43;6.75;;;17.40;71.70;;;;;;4948629;28;20658;-90
2023/07/16 07:32:20;;;;;;;18.52;7.57;;;17.40;72.30;;;;;;4980488;28;20442;-91
2023/07/16 07:34:46;;;;;;;17.95;7.65;;;17.20;72.70;;;;;;4958243;28;20043;-90
2023/07/16 07:37:12;;;;;;;14.05;7.05;;;17.00;73.00;;;;;;4966501;28;20046;-91
2023/07/16 07:39:37;;;;;;;14.18;6.63;;;17.00;73.20;;;;;;4942868;28;20390;-91
2023/07/16 07:42:04;;;;;;;20.73;7.82;;;17.00;73.40;;;;;;4954958;28;20078;-88
2023/07/16 07:44:30;;;;;;;14.10;7.28;;;17.00;73.50;;;;;;4970482;28;20054;-89
2023/07/16 07:46:58;;;;;;;21.50;7.45;;;17.10;73.30;;;;;;4938491;28;20049;-90
2023/07/16 07:49:27;;;;;;;14.90;7.45;;;17.10;73.20;;;;;;4959012;28;20050;-91
2023/07/16 07:51:55;;;;;;;16.00;7.25;;;17.20;73.00;;;;;;4947739;28;20389;-89
2023/07/16 07:54:21;;;;;;;16.67;7.10;;;17.20;72.80;;;;;;4946502;28;20043;-91
2023/07/16 07:56:49;;;;;;;16.77;6.72;;;17.20;72.60;;;;;;4951286;28;20050;-91
2023/07/16 07:59:22;;;;;;;15.00;6.47;;;17.20;72.60;;;;;;4967498;28;20459;-91
2023/07/16 08:01:48;;;;;;;15.50;6.75;;;17.10;72.30;;;;;;4950078;28;20055;-89
2023/07/16 08:04:14;;;;;;;14.95;6.68;;;17.20;72.60;;;;;;4945078;28;20526;-91
2023/07/16 08:06:40;;;;;;;14.43;6.90;;;17.20;72.50;;;;;;4949213;28;20055;-91
2023/07/16 08:09:05;;;;;;;15.18;6.72;;;17.30;72.10;;;;;;4956538;28;20062;-89
2023/07/16 08:11:31;;;;;;;13.63;6.38;;;17.40;71.60;;;;;;4956753;28;20047;-90
2023/07/16 08:13:57;;;;;;;20.05;6.78;;;17.40;71.70;;;;;;4958266;28;20058;-89
2023/07/16 08:16:23;;;;;;;13.35;6.50;;;17.40;70.70;;;;;;4944259;28;20043;-91
2023/07/16 08:18:49;;;;;;;12.27;7.03;;;17.30;71.00;;;;;;4963302;28;20046;-90
2023/07/16 08:21:19;;;;;;;16.17;6.80;;;17.30;71.50;;;;;;4972906;28;20049;-94
2023/07/16 08:23:54;;;;;;;14.40;6.60;;;17.20;72.00;;;;;;4928426;28;20072;-90
2023/07/16 08:26:20;;;;;;;17.23;7.18;;;17.20;72.10;;;;;;4931792;28;20046;-89
2023/07/16 08:28:46;;;;;;;14.82;6.78;;;17.20;72.20;;;;;;4948019;28;20053;-92
2023/07/16 08:31:15;;;;;;;12.63;6.43;;;17.20;71.80;;;;;;4968151;28;20054;-91
2023/07/16 08:33:41;;;;;;;12.63;6.25;;;17.20;71.70;;;;;;4970229;28;20085;-91
2023/07/16 08:36:07;;;;;;;16.05;7.20;;;17.10;72.20;;;;;;4954072;28;20509;-90
2023/07/16 08:38:33;;;;;;;14.27;6.88;;;17.00;72.60;;;;;;4949380;28;20046;-91
2023/07/16 08:41:02;;;;;;;15.57;7.55;;;17.00;73.00;;;;;;4966107;28;20035;-91
2023/07/16 08:43:29;;;;;;;18.13;7.18;;;17.00;73.70;;;;;;4951106;28;20039;-90
2023/07/16 08:45:58;;;;;;;16.85;7.32;;;17.10;73.70;;;;;;4965354;28;21576;-90
2023/07/16 08:48:24;;;;;;;12.38;6.55;;;17.20;73.80;;;;;;4958566;28;20047;-91
2023/07/16 08:50:55;;;;;;;16.02;7.20;;;17.40;73.10;;;;;;4967447;28;20046;-90
2023/07/16 08:53:27;;;;;;;15.38;7.63;;;17.60;72.80;;;;;;4944966;28;20105;-94
2023/07/16 08:56:08;;;;;;;18.00;7.22;;;17.70;73.20;;;;;;4949238;28;20101;-95
2023/07/16 08:58:42;;;;;;;14.00;7.07;;;17.80;72.70;;;;;;4959870;28;20590;-95
2023/07/16 09:01:17;;;;;;;17.40;7.43;;;18.00;72.40;;;;;;4965229;28;20058;-94
2023/07/16 09:03:43;;;;;;;16.00;7.07;;;18.10;71.50;;;;;;4948483;28;20066;-92
2023/07/16 09:06:08;;;;;;;18.55;6.90;;;18.20;71.50;;;;;;4949573;28;20051;-93
2023/07/16 09:08:34;;;;;;;12.68;6.78;;;18.40;70.80;;;;;;4955498;28;20058;-92
2023/07/16 09:11:00;;;;;;;13.18;6.25;;;18.50;70.60;;;;;;4971072;28;20034;-95
2023/07/16 09:13:29;;;;;;;14.98;6.95;;;18.50;70.00;;;;;;4954650;28;20062;-94
2023/07/16 09:15:57;;;;;;;15.68;6.38;;;18.60;69.40;;;;;;4956702;28;20094;-95
2023/07/16 09:18:25;;;;;;;16.83;6.35;;;18.60;69.10;;;;;;4938677;28;20538;-93
2023/07/16 09:20:57;;;;;;;14.20;5.97;;;18.80;69.50;;;;;;4953409;28;20047;-88
2023/07/16 09:23:27;;;;;;;13.20;6.20;;;18.90;68.30;;;;;;4937518;28;20140;-91
2023/07/16 09:25:54;;;;;;;12.48;5.72;;;19.00;67.30;;;;;;4950318;28;20074;-89
2023/07/16 09:28:20;;;;;;;18.60;6.32;;;18.80;67.60;;;;;;4940022;28;20047;-91
2023/07/16 09:30:47;;;;;;;13.93;6.30;;;18.60;68.70;;;;;;4971298;28;20065;-88
2023/07/16 09:33:15;;;;;;;16.13;7.28;;;18.30;69.00;;;;;;4942734;28;20110;-91
2023/07/16 09:35:41;;;;;;;14.80;6.53;;;18.10;69.50;;;;;;4966655;28;20039;-91
2023/07/16 09:38:17;;;;;;;15.52;6.50;;;18.00;70.00;;;;;;4965681;28;20109;-91
2023/07/16 09:40:43;;;;;;;17.60;6.40;;;18.00;69.90;;;;;;4943662;29;20039;-90
2023/07/16 09:43:13;;;;;;;14.13;6.50;;;18.10;69.90;;;;;;4932652;28;20051;-91
2023/07/16 09:45:41;;;;;;;13.10;6.20;;;18.20;69.80;;;;;;4964759;28;20050;-90
2023/07/16 09:48:10;;;;;;;16.45;6.28;;;18.30;69.80;;;;;;4961123;28;20407;-91
2023/07/16 09:50:37;;;;;;;13.27;6.60;;;18.40;69.90;;;;;;4951235;28;20708;-89
2023/07/16 09:53:07;;;;;;;16.55;6.07;;;18.30;69.50;;;;;;4961455;28;20080;-90
2023/07/16 09:55:34;;;;;;;15.07;6.00;;;18.30;69.60;;;;;;4947374;28;20043;-89
2023/07/16 09:58:05;;;;;;;12.25;5.78;;;18.20;69.70;;;;;;4952241;28;20054;-93
2023/07/16 10:00:33;;;;;;;12.25;5.60;;;18.30;69.70;;;;;;4958483;28;20078;-96
2023/07/16 10:03:00;;;;;;;12.13;5.88;;;18.40;69.10;;;;;;4971104;28;20158;-93
2023/07/16 10:05:29;;;;;;;9.60;5.03;;;18.50;68.60;;;;;;4966492;28;20038;-95
2023/07/16 10:07:59;;;;;;;15.90;5.78;;;18.70;68.90;;;;;;4947666;28;20046;-92
2023/07/16 10:11:06;;;;;;;11.05;5.43;;;19.00;67.90;;;;;;4979582;28;20074;-96
2023/07/16 10:13:45;;;;;;;15.35;5.50;;;19.00;67.30;;;;;;4936316;28;20050;-96
2023/07/16 10:16:23;;;;;;;16.80;5.47;;;19.00;67.80;;;;;;4971976;28;20046;-96
2023/07/16 10:19:07;;;;;;;12.77;5.88;;;18.90;67.30;;;;;;4955748;28;20058;-91
2023/07/16 10:21:58;;;;;;;12.27;5.68;;;18.90;67.70;;;;;;4971041;28;20073;-93
2023/07/16 10:24:27;;;;;;;7.25;4.93;;;18.80;67.30;;;;;;4970293;28;20039;-93
2023/07/16 10:26:53;;;;;;;12.48;5.50;;;18.90;67.60;;;;;;4969163;28;20042;-92
2023/07/16 10:29:19;;;;;;;10.73;5.32;;;18.90;67.50;;;;;;4934585;28;20114;-91
2023/07/16 10:31:46;;;;;;;10.80;5.40;;;19.10;67.50;;;;;;4953446;29;20051;-92
2023/07/16 10:34:12;;;;;;;12.55;5.55;;;19.10;67.50;;;;;;4907881;28;20467;-90
2023/07/16 10:36:44;;;;;;;11.13;5.45;;;19.10;67.20;;;;;;4953819;28;20101;-93
2023/07/16 10:39:12;;;;;;;13.73;6.18;;;19.00;67.00;;;;;;4942023;28;20129;-93
2023/07/16 10:41:41;;;;;;;11.82;6.20;;;18.90;67.30;;;;;;4957199;28;20047;-92
2023/07/16 10:44:16;;;;;;;15.50;6.70;;;18.70;67.90;;;;;;4953243;28;20559;-91
2023/07/16 10:46:45;;;;;;;13.85;6.70;;;18.70;68.40;;;;;;4951597;28;20109;-93
2023/07/16 10:49:11;;;;;;;12.48;6.93;;;18.80;68.50;;;;;;4942241;28;20066;-91
2023/07/16 10:51:40;;;;;;;13.20;5.72;;;18.90;68.10;;;;;;4960970;28;20137;-93
2023/07/16 10:54:07;;;;;;;21.67;6.22;;;18.90;67.60;;;;;;4959933;28;20077;-94
2023/07/16 10:57:04;;;;;;;12.95;6.43;;;18.90;66.90;;;;;;4965506;28;20069;-94
2023/07/16 10:59:43;;;;;;;12.95;5.60;;;19.00;67.60;;;;;;4938068;28;20061;-91
2023/07/16 11:02:36;;;;;;;11.60;5.75;;;19.10;67.80;;;;;;4954129;28;20051;-93
2023/07/16 11:05:14;;;;;;;11.60;5.22;;;19.10;66.70;;;;;;4958546;28;20050;-89
2023/07/16 11:07:55;;;;;;;11.23;5.53;;;19.10;66.20;;;;;;4928242;28;20062;-91
2023/07/16 11:10:25;;;;;;;15.15;5.72;;;19.20;66.00;;;;;;4907675;28;20419;-91
2023/07/16 11:12:55;;;;;;;11.38;5.03;;;19.20;66.50;;;;;;4903881;28;20047;-91
2023/07/16 11:15:34;;;;;;;10.50;5.13;;;19.10;66.70;;;;;;4930503;28;20047;-92
2023/07/16 11:18:03;;;;;;;12.18;5.30;;;19.00;65.60;;;;;;4929729;28;20515;-93
2023/07/16 11:20:29;;;;;;;9.82;4.60;;;19.00;65.00;;;;;;4965326;28;20395;-91
2023/07/16 11:23:03;;;;;;;11.82;5.30;;;19.10;65.90;;;;;;4938396;28;20053;-89
2023/07/16 11:25:29;;;;;;;10.05;5.35;;;19.20;66.60;;;;;;4959446;28;20043;-86
2023/07/16 11:27:58;;;;;;;8.45;4.85;;;19.30;65.80;;;;;;4943589;28;20157;-91
2023/07/16 11:30:24;;;;;;;11.88;5.03;;;19.20;65.70;;;;;;4954621;28;20389;-89
2023/07/16 11:32:51;;;;;;;20.92;5.72;;;19.10;66.50;;;;;;4911148;28;20051;-89
2023/07/16 11:35:21;;;;;;;8.13;4.72;;;18.90;66.90;;;;;;4955802;28;20046;-92
2023/07/16 11:37:47;;;;;;;10.95;5.60;;;18.70;67.70;;;;;;4933045;28;20165;-89
2023/07/16 11:40:18;;;;;;;16.27;4.90;;;18.60;68.20;;;;;;4939961;28;20499;-89
2023/07/16 11:42:47;;;;;;;11.98;5.05;;;18.70;68.10;;;;;;4924259;28;20536;-93
2023/07/16 11:45:21;;;;;;;12.15;5.10;;;18.80;68.00;;;;;;4937420;28;20149;-89
2023/07/16 11:47:59;;;;;;;14.35;5.18;;;19.20;67.40;;;;;;4939831;28;20043;-92
2023/07/16 11:50:25;;;;;;;13.27;5.07;;;19.40;67.00;;;;;;4952848;28;20139;-93
2023/07/16 11:53:01;;;;;;;14.73;4.70;;;19.50;66.90;;;;;;4908004;29;20054;-96
2023/07/16 11:55:35;;;;;;;13.63;4.95;;;19.50;66.30;;;;;;4944055;28;20054;-95
2023/07/16 11:58:02;;;;;;;12.68;4.70;;;19.50;66.00;;;;;;4944915;28;20071;-90
2023/07/16 12:00:28;;;;;;;12.07;4.97;;;19.40;66.10;;;;;;4926314;28;20050;-89
2023/07/16 12:02:54;;;;;;;10.77;4.85;;;19.50;66.50;;;;;;4932978;28;20427;-91
2023/07/16 12:05:24;;;;;;;11.50;5.10;;;19.70;66.40;;;;;;4936069;28;20051;-88
2023/07/16 12:07:49;;;;;;;13.63;5.43;;;19.80;66.30;;;;;;4929786;28;20062;-88
2023/07/16 12:10:16;;;;;;;13.77;5.72;;;19.80;66.90;;;;;;4964888;28;20039;-93
2023/07/16 12:12:41;;;;;;;16.35;6.25;;;19.90;67.10;;;;;;4950255;28;20094;-90
2023/07/16 12:15:08;;;;;;;12.07;5.60;;;20.00;67.20;;;;;;4961073;28;20062;-92
2023/07/16 12:17:36;;;;;;;13.88;6.32;;;20.00;66.80;;;;;;4954094;28;20316;-90
2023/07/16 12:20:04;;;;;;;12.65;5.95;;;19.90;66.80;;;;;;4955320;28;20054;-91
2023/07/16 12:22:30;;;;;;;12.52;6.05;;;19.80;67.20;;;;;;4948619;28;20050;-89
2023/07/16 12:24:56;;;;;;;13.27;6.22;;;19.60;67.10;;;;;;4951225;28;20046;-92
2023/07/16 12:27:24;;;;;;;15.68;5.95;;;19.50;67.30;;;;;;4955452;28;20130;-90
2023/07/16 12:29:53;;;;;;;13.50;5.72;;;19.40;67.20;;;;;;4961210;28;20043;-92
2023/07/16 12:32:20;;;;;;;11.23;5.63;;;19.30;67.30;;;;;;4954222;28;20137;-89
2023/07/16 12:34:48;;;;;;;12.55;5.93;;;19.40;67.50;;;;;;4955049;28;20048;-89
2023/07/16 12:37:14;;;;;;;13.00;5.32;;;19.40;67.00;;;;;;4987029;28;20104;-92
2023/07/16 12:39:40;;;;;;;13.00;5.50;;;19.40;67.20;;;;;;4968675;28;20376;-92
2023/07/16 12:42:06;;;;;;;14.52;5.20;;;19.50;67.40;;;;;;4970101;28;20473;-89
2023/07/16 12:44:32;;;;;;;18.08;5.78;;;19.50;66.80;;;;;;4972070;28;20046;-88
2023/07/16 12:46:58;;;;;;;16.77;4.65;;;19.50;66.60;;;;;;4950975;28;20046;-90
2023/07/16 12:49:23;;;;;;;12.98;4.82;;;19.50;66.30;;;;;;4963371;28;20057;-90
2023/07/16 12:51:52;;;;;;;14.18;5.35;;;19.50;66.40;;;;;;4972783;28;20108;-89
2023/07/16 12:54:20;;;;;;;11.77;4.60;;;19.50;65.90;;;;;;4972284;28;20157;-91